sensor_id;sensor_type;location;lat;lon;timestamp;P1;durP1;ratioP1;P2;durP2;ratioP2
20619;SDS011;10469;42.720;23.252;2022-08-03T00:00:48;4.10;;;1.75;;
20619;SDS011;10469;42.720;23.252;2022-08-03T00:03:14;1.77;;;1.60;;
20619;SDS011;10469;42.720;23.252;2022-08-03T00:05:39;1.85;;;1.73;;
20619;SDS011;10469;42.720;23.252;2022-08-03T00:08:05;4.03;;;2.00;;
20619;SDS011;10469;42.720;23.252;2022-08-03T00:10:31;3.53;;;2.28;;
20619;SDS011;10469;42.720;23.252;2022-08-03T00:12:56;2.08;;;1.83;;
20619;SDS011;10469;42.720;23.252;2022-08-03T00:15:22;3.47;;;2.10;;
20619;SDS011;10469;42.720;23.252;2022-08-03T00:17:47;8.23;;;1.88;;
20619;SDS011;10469;42.720;23.252;2022-08-03T00:20:13;2.55;;;1.80;;
20619;SDS011;10469;42.720;23.252;2022-08-03T00:22:38;2.22;;;1.80;;
20619;SDS011;10469;42.720;23.252;2022-08-03T00:25:04;2.30;;;2.03;;
20619;SDS011;10469;42.720;23.252;2022-08-03T00:27:30;2.75;;;1.65;;
20619;SDS011;10469;42.720;23.252;2022-08-03T00:29:55;5.20;;;2.22;;
20619;SDS011;10469;42.720;23.252;2022-08-03T00:32:20;3.28;;;1.80;;
20619;SDS011;10469;42.720;23.252;2022-08-03T00:34:46;2.08;;;1.85;;
20619;SDS011;10469;42.720;23.252;2022-08-03T00:37:11;3.72;;;2.20;;
20619;SDS011;10469;42.720;23.252;2022-08-03T00:39:37;5.07;;;1.98;;
20619;SDS011;10469;42.720;23.252;2022-08-03T00:42:03;4.35;;;2.53;;
20619;SDS011;10469;42.720;23.252;2022-08-03T00:44:29;3.40;;;2.17;;
20619;SDS011;10469;42.720;23.252;2022-08-03T00:46:54;4.47;;;2.67;;
20619;SDS011;10469;42.720;23.252;2022-08-03T00:57:06;4.45;;;2.83;;
20619;SDS011;10469;42.720;23.252;2022-08-03T00:59:32;4.75;;;2.40;;
20619;SDS011;10469;42.720;23.252;2022-08-03T01:01:58;7.95;;;2.72;;
20619;SDS011;10469;42.720;23.252;2022-08-03T01:04:24;4.10;;;2.85;;
20619;SDS011;10469;42.720;23.252;2022-08-03T01:12:28;5.80;;;2.35;;
20619;SDS011;10469;42.720;23.252;2022-08-03T01:15:02;6.55;;;2.30;;
20619;SDS011;10469;42.720;23.252;2022-08-03T01:31:04;5.57;;;2.25;;
20619;SDS011;10469;42.720;23.252;2022-08-03T01:33:39;2.70;;;1.90;;
20619;SDS011;10469;42.720;23.252;2022-08-03T01:36:13;3.17;;;2.25;;
20619;SDS011;10469;42.720;23.252;2022-08-03T01:38:41;2.10;;;2.00;;
20619;SDS011;10469;42.720;23.252;2022-08-03T01:41:11;4.50;;;2.10;;
20619;SDS011;10469;42.720;23.252;2022-08-03T01:43:46;7.90;;;2.20;;
20619;SDS011;10469;42.720;23.252;2022-08-03T01:46:14;2.47;;;2.00;;
20619;SDS011;10469;42.720;23.252;2022-08-03T01:48:41;6.05;;;2.15;;
20619;SDS011;10469;42.720;23.252;2022-08-03T01:51:09;7.47;;;2.53;;
20619;SDS011;10469;42.720;23.252;2022-08-03T01:53:36;2.85;;;2.15;;
20619;SDS011;10469;42.720;23.252;2022-08-03T01:56:06;3.33;;;1.98;;
20619;SDS011;10469;42.720;23.252;2022-08-03T01:58:33;8.18;;;2.10;;
20619;SDS011;10469;42.720;23.252;2022-08-03T02:01:01;2.88;;;2.10;;
20619;SDS011;10469;42.720;23.252;2022-08-03T02:03:29;2.65;;;1.67;;
20619;SDS011;10469;42.720;23.252;2022-08-03T02:05:58;3.47;;;2.28;;
20619;SDS011;10469;42.720;23.252;2022-08-03T02:08:25;5.35;;;1.95;;
20619;SDS011;10469;42.720;23.252;2022-08-03T02:10:54;2.25;;;1.80;;
20619;SDS011;10469;42.720;23.252;2022-08-03T02:13:21;3.40;;;2.15;;
20619;SDS011;10469;42.720;23.252;2022-08-03T02:15:49;2.53;;;2.13;;
20619;SDS011;10469;42.720;23.252;2022-08-03T02:18:16;2.55;;;2.20;;
20619;SDS011;10469;42.720;23.252;2022-08-03T02:20:43;2.50;;;2.10;;
20619;SDS011;10469;42.720;23.252;2022-08-03T02:23:10;4.45;;;2.22;;
20619;SDS011;10469;42.720;23.252;2022-08-03T02:25:38;3.53;;;1.92;;
20619;SDS011;10469;42.720;23.252;2022-08-03T02:28:15;5.30;;;2.50;;
20619;SDS011;10469;42.720;23.252;2022-08-03T02:30:44;3.25;;;2.00;;
20619;SDS011;10469;42.720;23.252;2022-08-03T02:33:16;5.40;;;2.10;;
20619;SDS011;10469;42.720;23.252;2022-08-03T02:35:46;3.33;;;2.20;;
20619;SDS011;10469;42.720;23.252;2022-08-03T02:38:14;2.47;;;2.28;;
20619;SDS011;10469;42.720;23.252;2022-08-03T02:40:42;2.95;;;2.00;;
20619;SDS011;10469;42.720;23.252;2022-08-03T02:43:10;2.63;;;2.10;;
20619;SDS011;10469;42.720;23.252;2022-08-03T02:45:42;4.32;;;2.05;;
20619;SDS011;10469;42.720;23.252;2022-08-03T02:48:11;2.63;;;2.25;;
20619;SDS011;10469;42.720;23.252;2022-08-03T02:50:41;4.15;;;2.03;;
20619;SDS011;10469;42.720;23.252;2022-08-03T02:53:09;5.72;;;2.20;;
20619;SDS011;10469;42.720;23.252;2022-08-03T02:55:37;4.55;;;2.35;;
20619;SDS011;10469;42.720;23.252;2022-08-03T02:58:03;6.65;;;2.65;;
20619;SDS011;10469;42.720;23.252;2022-08-03T03:00:31;6.65;;;3.20;;
20619;SDS011;10469;42.720;23.252;2022-08-03T03:02:59;6.15;;;2.90;;
20619;SDS011;10469;42.720;23.252;2022-08-03T03:05:28;5.45;;;2.40;;
20619;SDS011;10469;42.720;23.252;2022-08-03T03:07:55;5.85;;;2.80;;
20619;SDS011;10469;42.720;23.252;2022-08-03T03:10:21;8.13;;;3.25;;
20619;SDS011;10469;42.720;23.252;2022-08-03T03:12:52;4.47;;;2.90;;
20619;SDS011;10469;42.720;23.252;2022-08-03T03:15:21;3.72;;;2.85;;
20619;SDS011;10469;42.720;23.252;2022-08-03T03:17:48;4.45;;;2.67;;
20619;SDS011;10469;42.720;23.252;2022-08-03T03:20:15;5.95;;;2.75;;
20619;SDS011;10469;42.720;23.252;2022-08-03T03:22:42;5.75;;;2.60;;
20619;SDS011;10469;42.720;23.252;2022-08-03T03:25:08;5.65;;;2.60;;
20619;SDS011;10469;42.720;23.252;2022-08-03T03:27:34;6.65;;;2.55;;
20619;SDS011;10469;42.720;23.252;2022-08-03T03:30:01;4.13;;;2.70;;
20619;SDS011;10469;42.720;23.252;2022-08-03T03:32:28;3.47;;;3.00;;
20619;SDS011;10469;42.720;23.252;2022-08-03T03:34:54;4.75;;;3.00;;
20619;SDS011;10469;42.720;23.252;2022-08-03T03:37:20;7.53;;;3.20;;
20619;SDS011;10469;42.720;23.252;2022-08-03T03:39:46;6.07;;;3.22;;
20619;SDS011;10469;42.720;23.252;2022-08-03T03:42:12;5.55;;;2.80;;
20619;SDS011;10469;42.720;23.252;2022-08-03T03:44:37;9.70;;;2.53;;
20619;SDS011;10469;42.720;23.252;2022-08-03T03:47:03;5.68;;;2.40;;
20619;SDS011;10469;42.720;23.252;2022-08-03T03:49:29;3.08;;;2.28;;
20619;SDS011;10469;42.720;23.252;2022-08-03T03:51:56;4.93;;;2.50;;
20619;SDS011;10469;42.720;23.252;2022-08-03T03:54:22;4.30;;;2.97;;
20619;SDS011;10469;42.720;23.252;2022-08-03T03:56:47;7.75;;;3.35;;
20619;SDS011;10469;42.720;23.252;2022-08-03T03:59:12;10.38;;;2.70;;
20619;SDS011;10469;42.720;23.252;2022-08-03T04:01:38;2.60;;;2.40;;
20619;SDS011;10469;42.720;23.252;2022-08-03T04:04:04;4.25;;;2.20;;
20619;SDS011;10469;42.720;23.252;2022-08-03T04:06:48;4.45;;;2.40;;
20619;SDS011;10469;42.720;23.252;2022-08-03T04:09:34;9.07;;;2.72;;
20619;SDS011;10469;42.720;23.252;2022-08-03T04:12:21;4.13;;;3.33;;
20619;SDS011;10469;42.720;23.252;2022-08-03T04:14:50;11.77;;;3.30;;
20619;SDS011;10469;42.720;23.252;2022-08-03T04:17:20;8.23;;;2.80;;
20619;SDS011;10469;42.720;23.252;2022-08-03T04:19:51;4.00;;;2.90;;
20619;SDS011;10469;42.720;23.252;2022-08-03T04:22:23;7.57;;;3.03;;
20619;SDS011;10469;42.720;23.252;2022-08-03T04:27:25;10.10;;;3.10;;
20619;SDS011;10469;42.720;23.252;2022-08-03T04:29:55;9.35;;;3.08;;
20619;SDS011;10469;42.720;23.252;2022-08-03T04:32:21;6.10;;;2.90;;
20619;SDS011;10469;42.720;23.252;2022-08-03T04:34:50;4.78;;;3.55;;
20619;SDS011;10469;42.720;23.252;2022-08-03T04:37:20;12.13;;;4.20;;
20619;SDS011;10469;42.720;23.252;2022-08-03T04:39:52;6.90;;;4.00;;
20619;SDS011;10469;42.720;23.252;2022-08-03T04:42:21;17.55;;;4.53;;
20619;SDS011;10469;42.720;23.252;2022-08-03T04:44:48;9.23;;;4.00;;
20619;SDS011;10469;42.720;23.252;2022-08-03T04:47:15;11.05;;;4.18;;
20619;SDS011;10469;42.720;23.252;2022-08-03T04:49:40;11.80;;;4.00;;
20619;SDS011;10469;42.720;23.252;2022-08-03T04:52:07;6.18;;;3.80;;
20619;SDS011;10469;42.720;23.252;2022-08-03T04:54:40;7.55;;;3.85;;
20619;SDS011;10469;42.720;23.252;2022-08-03T04:57:10;9.23;;;3.47;;
20619;SDS011;10469;42.720;23.252;2022-08-03T04:59:36;8.50;;;3.25;;
20619;SDS011;10469;42.720;23.252;2022-08-03T05:02:02;6.03;;;3.60;;
20619;SDS011;10469;42.720;23.252;2022-08-03T05:04:27;7.45;;;4.00;;
20619;SDS011;10469;42.720;23.252;2022-08-03T05:06:53;6.00;;;3.75;;
20619;SDS011;10469;42.720;23.252;2022-08-03T05:09:18;8.15;;;4.97;;
20619;SDS011;10469;42.720;23.252;2022-08-03T05:11:44;7.75;;;4.03;;
20619;SDS011;10469;42.720;23.252;2022-08-03T05:14:10;12.18;;;4.13;;
20619;SDS011;10469;42.720;23.252;2022-08-03T05:16:35;6.43;;;4.03;;
20619;SDS011;10469;42.720;23.252;2022-08-03T05:19:01;10.98;;;4.18;;
20619;SDS011;10469;42.720;23.252;2022-08-03T05:21:26;16.92;;;4.55;;
20619;SDS011;10469;42.720;23.252;2022-08-03T05:23:52;7.75;;;4.05;;
20619;SDS011;10469;42.720;23.252;2022-08-03T05:26:17;12.75;;;4.13;;
20619;SDS011;10469;42.720;23.252;2022-08-03T05:28:43;9.68;;;4.00;;
20619;SDS011;10469;42.720;23.252;2022-08-03T05:31:08;7.38;;;3.58;;
20619;SDS011;10469;42.720;23.252;2022-08-03T05:33:34;12.70;;;3.78;;
20619;SDS011;10469;42.720;23.252;2022-08-03T05:36:01;9.00;;;3.63;;
20619;SDS011;10469;42.720;23.252;2022-08-03T05:38:26;7.38;;;3.78;;
20619;SDS011;10469;42.720;23.252;2022-08-03T05:40:52;9.65;;;4.47;;
20619;SDS011;10469;42.720;23.252;2022-08-03T05:43:17;6.88;;;3.33;;
20619;SDS011;10469;42.720;23.252;2022-08-03T05:45:43;10.23;;;4.28;;
20619;SDS011;10469;42.720;23.252;2022-08-03T05:48:08;4.30;;;3.60;;
20619;SDS011;10469;42.720;23.252;2022-08-03T05:50:33;4.60;;;3.40;;
20619;SDS011;10469;42.720;23.252;2022-08-03T05:53:00;7.38;;;4.28;;
20619;SDS011;10469;42.720;23.252;2022-08-03T05:55:26;4.78;;;3.42;;
20619;SDS011;10469;42.720;23.252;2022-08-03T05:57:51;6.85;;;3.50;;
20619;SDS011;10469;42.720;23.252;2022-08-03T06:00:17;7.55;;;3.83;;
20619;SDS011;10469;42.720;23.252;2022-08-03T06:02:42;17.67;;;3.92;;
20619;SDS011;10469;42.720;23.252;2022-08-03T06:05:08;4.65;;;3.22;;
20619;SDS011;10469;42.720;23.252;2022-08-03T06:07:34;6.00;;;3.25;;
20619;SDS011;10469;42.720;23.252;2022-08-03T06:10:00;8.88;;;3.90;;
20619;SDS011;10469;42.720;23.252;2022-08-03T06:12:27;13.30;;;4.13;;
20619;SDS011;10469;42.720;23.252;2022-08-03T06:14:53;12.18;;;3.60;;
20619;SDS011;10469;42.720;23.252;2022-08-03T06:17:18;8.65;;;3.50;;
20619;SDS011;10469;42.720;23.252;2022-08-03T06:19:44;8.68;;;3.33;;
20619;SDS011;10469;42.720;23.252;2022-08-03T06:22:09;10.52;;;3.47;;
20619;SDS011;10469;42.720;23.252;2022-08-03T06:24:34;13.77;;;3.45;;
20619;SDS011;10469;42.720;23.252;2022-08-03T06:27:00;5.00;;;3.67;;
20619;SDS011;10469;42.720;23.252;2022-08-03T06:29:26;11.88;;;3.55;;
20619;SDS011;10469;42.720;23.252;2022-08-03T06:31:51;9.20;;;3.50;;
20619;SDS011;10469;42.720;23.252;2022-08-03T06:34:17;15.02;;;3.40;;
20619;SDS011;10469;42.720;23.252;2022-08-03T06:36:42;8.45;;;3.38;;
20619;SDS011;10469;42.720;23.252;2022-08-03T06:39:07;8.50;;;3.25;;
20619;SDS011;10469;42.720;23.252;2022-08-03T06:41:33;5.45;;;2.88;;
20619;SDS011;10469;42.720;23.252;2022-08-03T06:43:58;16.13;;;5.75;;
20619;SDS011;10469;42.720;23.252;2022-08-03T06:46:24;7.13;;;3.10;;
20619;SDS011;10469;42.720;23.252;2022-08-03T06:48:49;13.32;;;3.15;;
20619;SDS011;10469;42.720;23.252;2022-08-03T06:51:15;12.52;;;3.47;;
20619;SDS011;10469;42.720;23.252;2022-08-03T06:53:40;7.82;;;3.60;;
20619;SDS011;10469;42.720;23.252;2022-08-03T06:56:06;10.77;;;3.70;;
20619;SDS011;10469;42.720;23.252;2022-08-03T06:58:35;7.68;;;2.90;;
20619;SDS011;10469;42.720;23.252;2022-08-03T07:01:00;4.70;;;2.65;;
20619;SDS011;10469;42.720;23.252;2022-08-03T07:03:26;9.20;;;3.00;;
20619;SDS011;10469;42.720;23.252;2022-08-03T07:05:51;6.72;;;2.85;;
20619;SDS011;10469;42.720;23.252;2022-08-03T07:08:17;8.55;;;2.95;;
20619;SDS011;10469;42.720;23.252;2022-08-03T07:10:43;4.38;;;2.70;;
20619;SDS011;10469;42.720;23.252;2022-08-03T07:13:09;8.30;;;2.80;;
20619;SDS011;10469;42.720;23.252;2022-08-03T07:15:36;8.35;;;2.45;;
20619;SDS011;10469;42.720;23.252;2022-08-03T07:18:02;10.60;;;2.60;;
20619;SDS011;10469;42.720;23.252;2022-08-03T07:20:28;4.32;;;2.55;;
20619;SDS011;10469;42.720;23.252;2022-08-03T07:22:54;5.50;;;2.90;;
20619;SDS011;10469;42.720;23.252;2022-08-03T07:25:20;5.03;;;2.70;;
20619;SDS011;10469;42.720;23.252;2022-08-03T07:27:46;11.52;;;2.70;;
20619;SDS011;10469;42.720;23.252;2022-08-03T07:30:12;5.15;;;2.55;;
20619;SDS011;10469;42.720;23.252;2022-08-03T07:32:39;6.50;;;2.75;;
20619;SDS011;10469;42.720;23.252;2022-08-03T07:35:05;7.00;;;2.58;;
20619;SDS011;10469;42.720;23.252;2022-08-03T07:37:32;8.23;;;3.17;;
20619;SDS011;10469;42.720;23.252;2022-08-03T07:40:00;6.35;;;3.20;;
20619;SDS011;10469;42.720;23.252;2022-08-03T07:42:28;9.57;;;2.70;;
20619;SDS011;10469;42.720;23.252;2022-08-03T07:44:54;6.78;;;2.95;;
20619;SDS011;10469;42.720;23.252;2022-08-03T07:47:20;7.53;;;2.72;;
20619;SDS011;10469;42.720;23.252;2022-08-03T07:49:48;3.65;;;2.90;;
20619;SDS011;10469;42.720;23.252;2022-08-03T07:52:14;5.28;;;2.75;;
20619;SDS011;10469;42.720;23.252;2022-08-03T07:54:57;6.05;;;2.72;;
20619;SDS011;10469;42.720;23.252;2022-08-03T07:57:23;8.00;;;2.42;;
20619;SDS011;10469;42.720;23.252;2022-08-03T07:59:49;8.93;;;2.70;;
20619;SDS011;10469;42.720;23.252;2022-08-03T08:02:14;8.18;;;2.60;;
20619;SDS011;10469;42.720;23.252;2022-08-03T08:04:40;6.25;;;2.47;;
20619;SDS011;10469;42.720;23.252;2022-08-03T08:07:06;4.10;;;2.58;;
20619;SDS011;10469;42.720;23.252;2022-08-03T08:09:31;4.68;;;2.72;;
20619;SDS011;10469;42.720;23.252;2022-08-03T08:11:58;2.55;;;2.35;;
20619;SDS011;10469;42.720;23.252;2022-08-03T08:14:23;6.22;;;2.38;;
20619;SDS011;10469;42.720;23.252;2022-08-03T08:16:49;6.10;;;2.67;;
20619;SDS011;10469;42.720;23.252;2022-08-03T08:19:15;5.28;;;2.17;;
20619;SDS011;10469;42.720;23.252;2022-08-03T08:21:42;4.50;;;2.45;;
20619;SDS011;10469;42.720;23.252;2022-08-03T08:24:08;9.32;;;3.25;;
20619;SDS011;10469;42.720;23.252;2022-08-03T08:26:33;2.55;;;2.22;;
20619;SDS011;10469;42.720;23.252;2022-08-03T08:28:59;4.13;;;2.10;;
20619;SDS011;10469;42.720;23.252;2022-08-03T08:31:25;4.18;;;2.50;;
20619;SDS011;10469;42.720;23.252;2022-08-03T08:33:50;9.98;;;2.50;;
20619;SDS011;10469;42.720;23.252;2022-08-03T08:36:16;3.97;;;2.00;;
20619;SDS011;10469;42.720;23.252;2022-08-03T08:38:42;3.30;;;1.77;;
20619;SDS011;10469;42.720;23.252;2022-08-03T08:41:09;2.55;;;2.35;;
20619;SDS011;10469;42.720;23.252;2022-08-03T08:43:36;3.17;;;2.05;;
20619;SDS011;10469;42.720;23.252;2022-08-03T08:46:01;5.40;;;2.00;;
20619;SDS011;10469;42.720;23.252;2022-08-03T08:48:30;3.95;;;2.30;;
20619;SDS011;10469;42.720;23.252;2022-08-03T08:50:56;2.67;;;2.40;;
20619;SDS011;10469;42.720;23.252;2022-08-03T08:53:24;6.05;;;1.90;;
20619;SDS011;10469;42.720;23.252;2022-08-03T08:55:51;6.70;;;2.10;;
20619;SDS011;10469;42.720;23.252;2022-08-03T08:58:22;4.88;;;2.03;;
20619;SDS011;10469;42.720;23.252;2022-08-03T09:00:50;5.22;;;1.90;;
20619;SDS011;10469;42.720;23.252;2022-08-03T09:03:15;2.97;;;2.67;;
20619;SDS011;10469;42.720;23.252;2022-08-03T09:05:42;2.47;;;2.20;;
20619;SDS011;10469;42.720;23.252;2022-08-03T09:08:07;7.43;;;1.80;;
20619;SDS011;10469;42.720;23.252;2022-08-03T09:10:33;3.15;;;1.90;;
20619;SDS011;10469;42.720;23.252;2022-08-03T09:12:59;2.72;;;1.77;;
20619;SDS011;10469;42.720;23.252;2022-08-03T09:15:29;4.13;;;1.80;;
20619;SDS011;10469;42.720;23.252;2022-08-03T09:17:57;3.27;;;1.60;;
20619;SDS011;10469;42.720;23.252;2022-08-03T09:20:28;4.55;;;1.80;;
20619;SDS011;10469;42.720;23.252;2022-08-03T09:22:58;1.70;;;1.60;;
20619;SDS011;10469;42.720;23.252;2022-08-03T09:25:29;2.63;;;1.70;;
20619;SDS011;10469;42.720;23.252;2022-08-03T09:27:54;2.08;;;1.60;;
20619;SDS011;10469;42.720;23.252;2022-08-03T09:30:32;2.78;;;1.85;;
20619;SDS011;10469;42.720;23.252;2022-08-03T09:33:03;2.10;;;1.63;;
20619;SDS011;10469;42.720;23.252;2022-08-03T09:35:33;3.38;;;1.73;;
20619;SDS011;10469;42.720;23.252;2022-08-03T09:38:08;1.95;;;1.50;;
20619;SDS011;10469;42.720;23.252;2022-08-03T09:40:34;2.45;;;1.50;;
20619;SDS011;10469;42.720;23.252;2022-08-03T09:43:00;2.85;;;1.55;;
20619;SDS011;10469;42.720;23.252;2022-08-03T09:45:26;1.85;;;1.70;;
20619;SDS011;10469;42.720;23.252;2022-08-03T09:47:52;1.88;;;1.60;;
20619;SDS011;10469;42.720;23.252;2022-08-03T09:50:17;5.28;;;1.75;;
20619;SDS011;10469;42.720;23.252;2022-08-03T09:52:43;3.20;;;2.00;;
20619;SDS011;10469;42.720;23.252;2022-08-03T09:55:11;2.20;;;2.00;;
20619;SDS011;10469;42.720;23.252;2022-08-03T09:57:39;2.03;;;1.80;;
20619;SDS011;10469;42.720;23.252;2022-08-03T10:00:22;6.03;;;2.30;;
20619;SDS011;10469;42.720;23.252;2022-08-03T10:02:48;3.08;;;2.00;;
20619;SDS011;10469;42.720;23.252;2022-08-03T10:05:14;4.25;;;1.98;;
20619;SDS011;10469;42.720;23.252;2022-08-03T10:07:41;3.80;;;1.80;;
20619;SDS011;10469;42.720;23.252;2022-08-03T10:10:12;3.33;;;1.93;;
20619;SDS011;10469;42.720;23.252;2022-08-03T10:12:39;1.80;;;1.70;;
20619;SDS011;10469;42.720;23.252;2022-08-03T10:15:06;4.28;;;1.63;;
20619;SDS011;10469;42.720;23.252;2022-08-03T10:17:32;2.28;;;1.90;;
20619;SDS011;10469;42.720;23.252;2022-08-03T10:19:58;1.83;;;1.70;;
20619;SDS011;10469;42.720;23.252;2022-08-03T10:22:27;2.95;;;1.73;;
20619;SDS011;10469;42.720;23.252;2022-08-03T10:25:07;2.20;;;1.95;;
20619;SDS011;10469;42.720;23.252;2022-08-03T10:27:36;2.92;;;2.17;;
20619;SDS011;10469;42.720;23.252;2022-08-03T10:30:05;8.73;;;2.30;;
20619;SDS011;10469;42.720;23.252;2022-08-03T10:32:33;1.88;;;1.73;;
20619;SDS011;10469;42.720;23.252;2022-08-03T10:35:17;2.47;;;2.20;;
20619;SDS011;10469;42.720;23.252;2022-08-03T10:37:47;2.25;;;1.70;;
20619;SDS011;10469;42.720;23.252;2022-08-03T10:40:17;3.83;;;2.20;;
20619;SDS011;10469;42.720;23.252;2022-08-03T10:42:47;2.70;;;1.88;;
20619;SDS011;10469;42.720;23.252;2022-08-03T10:45:18;3.67;;;2.40;;
20619;SDS011;10469;42.720;23.252;2022-08-03T10:47:45;2.90;;;2.10;;
20619;SDS011;10469;42.720;23.252;2022-08-03T10:50:12;2.70;;;1.70;;
20619;SDS011;10469;42.720;23.252;2022-08-03T10:55:36;2.72;;;1.92;;
20619;SDS011;10469;42.720;23.252;2022-08-03T11:01:05;1.73;;;1.63;;
20619;SDS011;10469;42.720;23.252;2022-08-03T11:03:32;1.77;;;1.67;;
20619;SDS011;10469;42.720;23.252;2022-08-03T11:06:30;3.65;;;1.60;;
20619;SDS011;10469;42.720;23.252;2022-08-03T11:11:34;2.63;;;1.50;;
20619;SDS011;10469;42.720;23.252;2022-08-03T11:14:04;1.65;;;1.55;;
20619;SDS011;10469;42.720;23.252;2022-08-03T11:16:33;1.80;;;1.70;;
20619;SDS011;10469;42.720;23.252;2022-08-03T11:19:02;2.13;;;1.80;;
20619;SDS011;10469;42.720;23.252;2022-08-03T11:29:38;5.82;;;1.55;;
20619;SDS011;10469;42.720;23.252;2022-08-03T11:35:17;1.50;;;1.40;;
20619;SDS011;10469;42.720;23.252;2022-08-03T11:45:57;2.25;;;1.90;;
20619;SDS011;10469;42.720;23.252;2022-08-03T11:51:02;1.90;;;1.65;;
20619;SDS011;10469;42.720;23.252;2022-08-03T11:53:29;5.13;;;1.80;;
20619;SDS011;10469;42.720;23.252;2022-08-03T12:05:43;2.67;;;1.90;;
20619;SDS011;10469;42.720;23.252;2022-08-03T12:08:14;3.80;;;2.10;;
20619;SDS011;10469;42.720;23.252;2022-08-03T12:10:49;6.10;;;2.08;;
20619;SDS011;10469;42.720;23.252;2022-08-03T12:13:16;2.60;;;2.20;;
20619;SDS011;10469;42.720;23.252;2022-08-03T12:15:42;3.90;;;2.08;;
20619;SDS011;10469;42.720;23.252;2022-08-03T12:18:15;3.40;;;2.05;;
20619;SDS011;10469;42.720;23.252;2022-08-03T12:20:43;4.07;;;2.30;;
20619;SDS011;10469;42.720;23.252;2022-08-03T12:23:10;3.22;;;1.95;;
20619;SDS011;10469;42.720;23.252;2022-08-03T12:25:37;1.77;;;1.67;;
20619;SDS011;10469;42.720;23.252;2022-08-03T12:30:38;3.17;;;2.08;;
20619;SDS011;10469;42.720;23.252;2022-08-03T12:33:17;4.55;;;2.03;;
20619;SDS011;10469;42.720;23.252;2022-08-03T12:35:44;2.05;;;1.77;;
20619;SDS011;10469;42.720;23.252;2022-08-03T12:38:11;3.90;;;1.85;;
20619;SDS011;10469;42.720;23.252;2022-08-03T12:40:37;3.28;;;2.00;;
20619;SDS011;10469;42.720;23.252;2022-08-03T12:43:10;2.30;;;2.10;;
20619;SDS011;10469;42.720;23.252;2022-08-03T12:45:37;2.72;;;1.90;;
20619;SDS011;10469;42.720;23.252;2022-08-03T12:48:02;2.97;;;2.00;;
20619;SDS011;10469;42.720;23.252;2022-08-03T12:50:34;2.75;;;2.10;;
20619;SDS011;10469;42.720;23.252;2022-08-03T12:53:02;2.92;;;2.30;;
20619;SDS011;10469;42.720;23.252;2022-08-03T12:55:30;4.18;;;1.85;;
20619;SDS011;10469;42.720;23.252;2022-08-03T12:57:59;2.70;;;2.10;;
20619;SDS011;10469;42.720;23.252;2022-08-03T13:00:29;3.65;;;1.75;;
20619;SDS011;10469;42.720;23.252;2022-08-03T13:03:02;4.63;;;2.05;;
20619;SDS011;10469;42.720;23.252;2022-08-03T13:05:30;4.85;;;2.00;;
20619;SDS011;10469;42.720;23.252;2022-08-03T13:07:56;4.18;;;2.83;;
20619;SDS011;10469;42.720;23.252;2022-08-03T13:10:40;5.32;;;2.40;;
20619;SDS011;10469;42.720;23.252;2022-08-03T13:13:07;2.38;;;2.15;;
20619;SDS011;10469;42.720;23.252;2022-08-03T13:15:32;7.07;;;2.70;;
20619;SDS011;10469;42.720;23.252;2022-08-03T13:17:58;4.25;;;2.20;;
20619;SDS011;10469;42.720;23.252;2022-08-03T13:20:24;5.53;;;2.13;;
20619;SDS011;10469;42.720;23.252;2022-08-03T13:22:49;6.97;;;2.30;;
20619;SDS011;10469;42.720;23.252;2022-08-03T13:25:15;6.88;;;2.20;;
20619;SDS011;10469;42.720;23.252;2022-08-03T13:27:41;3.03;;;2.08;;
20619;SDS011;10469;42.720;23.252;2022-08-03T13:30:07;9.68;;;1.90;;
20619;SDS011;10469;42.720;23.252;2022-08-03T13:32:33;2.30;;;2.10;;
20619;SDS011;10469;42.720;23.252;2022-08-03T13:34:59;2.55;;;2.10;;
20619;SDS011;10469;42.720;23.252;2022-08-03T13:37:26;3.55;;;2.25;;
20619;SDS011;10469;42.720;23.252;2022-08-03T13:39:53;3.72;;;2.10;;
20619;SDS011;10469;42.720;23.252;2022-08-03T13:42:18;3.25;;;2.40;;
20619;SDS011;10469;42.720;23.252;2022-08-03T13:44:44;7.40;;;2.55;;
20619;SDS011;10469;42.720;23.252;2022-08-03T13:47:10;4.03;;;2.67;;
20619;SDS011;10469;42.720;23.252;2022-08-03T13:49:36;7.32;;;2.75;;
20619;SDS011;10469;42.720;23.252;2022-08-03T13:52:02;4.20;;;2.20;;
20619;SDS011;10469;42.720;23.252;2022-08-03T13:54:27;5.65;;;3.90;;
20619;SDS011;10469;42.720;23.252;2022-08-03T13:56:54;7.78;;;3.08;;
20619;SDS011;10469;42.720;23.252;2022-08-03T13:59:23;4.40;;;2.28;;
20619;SDS011;10469;42.720;23.252;2022-08-03T14:01:50;5.22;;;3.03;;
20619;SDS011;10469;42.720;23.252;2022-08-03T14:04:18;4.72;;;2.40;;
20619;SDS011;10469;42.720;23.252;2022-08-03T14:06:44;3.22;;;2.17;;
20619;SDS011;10469;42.720;23.252;2022-08-03T14:09:13;4.07;;;2.33;;
20619;SDS011;10469;42.720;23.252;2022-08-03T14:11:40;5.05;;;2.95;;
20619;SDS011;10469;42.720;23.252;2022-08-03T14:14:07;2.45;;;2.25;;
20619;SDS011;10469;42.720;23.252;2022-08-03T14:16:33;2.40;;;2.20;;
20619;SDS011;10469;42.720;23.252;2022-08-03T14:18:59;2.55;;;2.20;;
20619;SDS011;10469;42.720;23.252;2022-08-03T14:21:25;5.57;;;2.90;;
20619;SDS011;10469;42.720;23.252;2022-08-03T14:23:50;4.95;;;2.92;;
20619;SDS011;10469;42.720;23.252;2022-08-03T14:26:16;3.53;;;2.35;;
20619;SDS011;10469;42.720;23.252;2022-08-03T14:28:44;4.15;;;2.30;;
20619;SDS011;10469;42.720;23.252;2022-08-03T14:31:10;6.53;;;2.13;;
20619;SDS011;10469;42.720;23.252;2022-08-03T14:33:36;5.70;;;2.63;;
20619;SDS011;10469;42.720;23.252;2022-08-03T14:36:02;4.68;;;2.80;;
20619;SDS011;10469;42.720;23.252;2022-08-03T14:38:28;10.23;;;2.70;;
20619;SDS011;10469;42.720;23.252;2022-08-03T14:40:53;2.47;;;2.17;;
20619;SDS011;10469;42.720;23.252;2022-08-03T15:09:32;4.22;;;2.10;;
20619;SDS011;10469;42.720;23.252;2022-08-03T15:11:57;5.50;;;2.55;;
20619;SDS011;10469;42.720;23.252;2022-08-03T15:14:23;4.07;;;2.40;;
20619;SDS011;10469;42.720;23.252;2022-08-03T15:16:49;2.75;;;2.28;;
20619;SDS011;10469;42.720;23.252;2022-08-03T15:19:14;4.90;;;2.13;;
20619;SDS011;10469;42.720;23.252;2022-08-03T15:21:40;4.60;;;2.78;;
20619;SDS011;10469;42.720;23.252;2022-08-03T15:24:05;3.00;;;2.40;;
20619;SDS011;10469;42.720;23.252;2022-08-03T15:26:31;3.80;;;2.40;;
20619;SDS011;10469;42.720;23.252;2022-08-03T15:28:57;2.90;;;2.60;;
20619;SDS011;10469;42.720;23.252;2022-08-03T15:31:23;4.97;;;3.35;;
20619;SDS011;10469;42.720;23.252;2022-08-03T15:33:49;3.92;;;2.30;;
20619;SDS011;10469;42.720;23.252;2022-08-03T15:36:16;8.27;;;2.25;;
20619;SDS011;10469;42.720;23.252;2022-08-03T15:38:42;4.07;;;2.92;;
20619;SDS011;10469;42.720;23.252;2022-08-03T15:41:08;6.72;;;3.90;;
20619;SDS011;10469;42.720;23.252;2022-08-03T15:43:33;5.35;;;2.55;;
20619;SDS011;10469;42.720;23.252;2022-08-03T15:45:59;5.75;;;3.65;;
20619;SDS011;10469;42.720;23.252;2022-08-03T15:48:25;5.38;;;3.22;;
20619;SDS011;10469;42.720;23.252;2022-08-03T15:50:51;5.65;;;3.00;;
20619;SDS011;10469;42.720;23.252;2022-08-03T15:53:18;5.75;;;2.78;;
20619;SDS011;10469;42.720;23.252;2022-08-03T15:55:44;5.40;;;3.13;;
20619;SDS011;10469;42.720;23.252;2022-08-03T15:58:09;4.80;;;3.15;;
20619;SDS011;10469;42.720;23.252;2022-08-03T16:00:35;4.90;;;2.95;;
20619;SDS011;10469;42.720;23.252;2022-08-03T16:03:00;4.55;;;2.85;;
20619;SDS011;10469;42.720;23.252;2022-08-03T16:05:26;5.65;;;3.13;;
20619;SDS011;10469;42.720;23.252;2022-08-03T16:07:52;4.43;;;2.85;;
20619;SDS011;10469;42.720;23.252;2022-08-03T16:10:18;2.92;;;2.50;;
20619;SDS011;10469;42.720;23.252;2022-08-03T16:12:45;4.97;;;3.20;;